Time;durP1;ratioP1;P1;durP2;ratioP2;P2;SDS_P1;SDS_P2;PMS_P1;PMS_P2;Temp;Humidity;BMP_temperature;BMP_pressure;BME280_temperature;BME280_humidity;BME280_pressure;Samples;Min_cycle;Max_cycle;Signal;HPM_P1;HPM_P2
2023/06/26 00:02:20;;;;;;;13.25;9.48;;;;;;;;;;6217900;23;20031;-92
2023/06/26 00:04:54;;;;;;;12.90;9.98;;;;;;;;;;6217117;23;20039;-93
2023/06/26 00:07:33;;;;;;;19.00;10.25;;;;;;;;;;6193924;23;20043;-92
2023/06/26 00:10:08;;;;;;;16.83;10.05;;;;;;;;;;6216137;23;20044;-93
2023/06/26 00:12:46;;;;;;;12.95;8.65;;;;;;;;;;6216775;23;20012;-93
2023/06/26 00:15:12;;;;;;;15.27;9.40;;;;;;;;;;6216618;23;20444;-92
2023/06/26 00:17:39;;;;;;;18.25;11.15;;;;;;;;;;6215482;23;20018;-92
2023/06/26 00:20:06;;;;;;;17.42;10.20;;;;;;;;;;6215182;23;20385;-93
2023/06/26 00:22:42;;;;;;;16.35;9.73;;;;;;;;;;6220035;23;20077;-93
2023/06/26 00:25:18;;;;;;;14.63;9.05;;;;;;;;;;6195347;23;20103;-90
2023/06/26 00:27:48;;;;;;;21.67;9.95;;;;;;;;;;6224731;22;20060;-90
2023/06/26 00:30:50;;;;;;;11.20;8.60;;;;;;;;;;6224356;23;20012;-91
2023/06/26 00:33:15;;;;;;;14.93;9.77;;;;;;;;;;6249266;23;20010;-91
2023/06/26 00:36:22;;;;;;;15.65;9.48;;;;;;;;;;6197854;23;20044;-92
2023/06/26 00:38:52;;;;;;;14.05;9.50;;;;;;;;;;6105091;23;20085;-94
2023/06/26 00:41:20;;;;;;;14.88;9.23;;;;;;;;;;6052599;23;20129;-92
2023/06/26 00:43:58;;;;;;;13.05;9.40;;;;;;;;;;6051661;23;20021;-92
2023/06/26 00:46:28;;;;;;;17.50;9.88;;;;;;;;;;6098282;23;20377;-91
2023/06/26 00:49:09;;;;;;;;;;;;;;;;;;;;;
2023/06/26 00:51:50;;;;;;;15.18;8.57;;;;;;;;;;6254728;23;20015;-92
2023/06/26 00:54:37;;;;;;;13.55;9.90;;;;;;;;;;6223839;23;20008;-91
2023/06/26 00:57:57;;;;;;;12.63;9.45;;;;;;;;;;6230999;23;20015;-92
2023/06/26 01:00:12;;;;;;;15.98;9.85;;;;;;;;;;6238428;23;20229;-93
2023/06/26 01:02:47;;;;;;;13.75;9.45;;;;;;;;;;6206781;23;20464;-92
2023/06/26 01:05:23;;;;;;;16.20;10.27;;;;;;;;;;6229640;23;20004;-91
2023/06/26 01:08:04;;;;;;;12.70;9.75;;;;;;;;;;6229220;23;20243;-90
2023/06/26 01:10:41;;;;;;;;;;;;;;;;;;;;;
2023/06/26 01:13:18;;;;;;;15.05;10.43;;;;;;;;;;6252316;23;20028;-93
2023/06/26 01:16:07;;;;;;;14.45;10.82;;;;;;;;;;6235549;23;20062;-93
2023/06/26 01:19:00;;;;;;;;;;;;;;;;;;;;;
2023/06/26 01:21:39;;;;;;;22.92;11.25;;;;;;;;;;6255087;23;20027;-91
2023/06/26 01:24:37;;;;;;;17.95;10.93;;;;;;;;;;6227306;23;20011;-91
2023/06/26 01:27:29;;;;;;;16.48;11.30;;;;;;;;;;6223961;23;20009;-90
2023/06/26 01:33:36;;;;;;;;;;;;;;;;;;;;;
2023/06/26 01:39:18;;;;;;;;;;;;;;;;;;6224588;23;20040;-89
2023/06/26 01:41:56;;;;;;;14.85;10.32;;;;;;;;;;6216142;23;19967;-88
2023/06/26 01:44:31;;;;;;;18.45;11.68;;;;;;;;;;6190411;23;20011;-89
2023/06/26 01:47:06;;;;;;;19.15;11.73;;;;;;;;;;6219794;23;20020;-89
2023/06/26 01:49:38;;;;;;;15.18;11.27;;;;;;;;;;6224108;23;20016;-88
2023/06/26 01:52:24;;;;;;;;;;;;;;;;;;;;;
2023/06/26 01:54:51;;;;;;;17.30;11.57;;;;;;;;;;6222863;23;20031;-88
2023/06/26 01:57:45;;;;;;;16.52;11.80;;;;;;;;;;6224377;23;20000;-88
2023/06/26 02:00:31;;;;;;;18.55;11.80;;;;;;;;;;6194905;23;20019;-88
2023/06/26 02:03:06;;;;;;;21.63;12.63;;;;;;;;;;6217145;23;20015;-88
2023/06/26 02:05:37;;;;;;;;;;;;;;;;;;6225214;23;20427;-89
2023/06/26 02:08:10;;;;;;;18.77;12.15;;;;;;;;;;6223070;23;19903;-89
2023/06/26 02:10:46;;;;;;;17.33;10.82;;;;;;;;;;6193691;23;20008;-89
2023/06/26 02:13:28;;;;;;;16.65;11.52;;;;;;;;;;6220348;23;20063;-90
2023/06/26 02:16:01;;;;;;;21.40;11.85;;;;;;;;;;6198678;23;20009;-93
2023/06/26 02:18:30;;;;;;;20.60;12.25;;;;;;;;;;6224391;23;20000;-90
2023/06/26 02:20:59;;;;;;;21.70;12.52;;;;;;;;;;6201419;23;19997;-89
2023/06/26 02:23:39;;;;;;;18.35;11.75;;;;;;;;;;6191006;23;20012;-90
2023/06/26 02:26:06;;;;;;;15.55;11.52;;;;;;;;;;6218963;23;20035;-90
2023/06/26 02:28:37;;;;;;;18.60;12.45;;;;;;;;;;6219685;22;20025;-90
2023/06/26 02:31:24;;;;;;;17.38;11.95;;;;;;;;;;6200871;23;20012;-90
2023/06/26 02:33:56;;;;;;;17.77;11.35;;;;;;;;;;6225574;23;20438;-90
2023/06/26 02:36:22;;;;;;;19.42;11.90;;;;;;;;;;6224345;23;20012;-90
2023/06/26 02:38:55;;;;;;;17.83;11.57;;;;;;;;;;6250221;23;20003;-89
2023/06/26 02:41:21;;;;;;;14.98;10.68;;;;;;;;;;6197335;23;20016;-89
2023/06/26 02:43:47;;;;;;;16.60;11.10;;;;;;;;;;6197510;23;20012;-88
2023/06/26 02:46:13;;;;;;;16.42;11.38;;;;;;;;;;6221540;23;20004;-88
2023/06/26 02:48:40;;;;;;;21.17;12.52;;;;;;;;;;6222840;23;20023;-89
2023/06/26 02:51:09;;;;;;;14.20;9.90;;;;;;;;;;6221842;23;20015;-88
2023/06/26 02:53:36;;;;;;;16.38;11.18;;;;;;;;;;6222368;23;20032;-88
2023/06/26 02:56:06;;;;;;;14.52;10.20;;;;;;;;;;6196875;23;20016;-89
2023/06/26 02:58:33;;;;;;;18.88;10.32;;;;;;;;;;6198187;23;20012;-90
2023/06/26 03:01:02;;;;;;;13.90;9.82;;;;;;;;;;6223240;23;20147;-90
2023/06/26 03:03:29;;;;;;;14.60;9.45;;;;;;;;;;6199729;23;20008;-90
2023/06/26 03:05:56;;;;;;;13.85;9.13;;;;;;;;;;6199250;23;20035;-90
2023/06/26 03:08:24;;;;;;;18.70;10.13;;;;;;;;;;6224860;23;20031;-90
2023/06/26 03:10:50;;;;;;;16.15;9.52;;;;;;;;;;6198754;23;20008;-90
2023/06/26 03:13:17;;;;;;;13.85;9.63;;;;;;;;;;6196500;23;20013;-89
2023/06/26 03:15:44;;;;;;;13.70;10.30;;;;;;;;;;6194396;23;20012;-90
2023/06/26 03:18:10;;;;;;;15.20;9.15;;;;;;;;;;6217646;23;20385;-90
2023/06/26 03:20:43;;;;;;;16.60;10.18;;;;;;;;;;6218019;23;20358;-90
2023/06/26 03:23:09;;;;;;;15.32;10.13;;;;;;;;;;6216943;23;20028;-89
2023/06/26 03:25:35;;;;;;;13.88;9.48;;;;;;;;;;6193604;23;20046;-90
2023/06/26 03:28:02;;;;;;;14.15;10.13;;;;;;;;;;6198339;23;20365;-90
2023/06/26 03:30:38;;;;;;;22.58;10.77;;;;;;;;;;6195628;23;20030;-91
2023/06/26 03:33:07;;;;;;;13.90;9.85;;;;;;;;;;6199108;23;20103;-90
2023/06/26 03:35:33;;;;;;;15.77;10.15;;;;;;;;;;6195941;23;20524;-90
2023/06/26 03:38:18;;;;;;;19.15;10.77;;;;;;;;;;6248019;23;20536;-90
2023/06/26 03:40:44;;;;;;;15.30;10.73;;;;;;;;;;6197433;23;20019;-91
2023/06/26 03:43:11;;;;;;;16.27;10.35;;;;;;;;;;6196310;23;20058;-90
2023/06/26 03:45:38;;;;;;;16.75;11.07;;;;;;;;;;6199048;23;20319;-89
2023/06/26 03:48:04;;;;;;;20.95;10.05;;;;;;;;;;6224477;23;20439;-89
2023/06/26 03:50:30;;;;;;;16.13;10.63;;;;;;;;;;6197539;23;20048;-90
2023/06/26 03:52:59;;;;;;;16.20;10.45;;;;;;;;;;6196889;23;20032;-91
2023/06/26 03:55:28;;;;;;;13.65;9.90;;;;;;;;;;6198315;23;20062;-90
2023/06/26 03:57:58;;;;;;;16.60;9.88;;;;;;;;;;6198486;23;20012;-88
2023/06/26 04:00:32;;;;;;;17.35;10.35;;;;;;;;;;6197767;23;20472;-91
2023/06/26 04:03:05;;;;;;;12.82;8.73;;;;;;;;;;6193964;23;20013;-90
2023/06/26 04:05:34;;;;;;;14.55;9.18;;;;;;;;;;6223838;23;20422;-89
2023/06/26 04:08:01;;;;;;;15.13;9.75;;;;;;;;;;6221266;23;20496;-89
2023/06/26 04:10:36;;;;;;;15.90;9.70;;;;;;;;;;6200184;23;20012;-89
2023/06/26 04:13:07;;;;;;;13.05;9.50;;;;;;;;;;6225120;23;20008;-90
2023/06/26 04:15:37;;;;;;;16.45;9.73;;;;;;;;;;6224103;23;20086;-89
2023/06/26 04:18:16;;;;;;;17.27;8.88;;;;;;;;;;6198350;23;20413;-88
2023/06/26 04:21:02;;;;;;;14.27;8.80;;;;;;;;;;6199634;23;20071;-88
2023/06/26 04:23:38;;;;;;;14.57;9.60;;;;;;;;;;6222180;23;20028;-90
2023/06/26 04:26:06;;;;;;;12.38;8.63;;;;;;;;;;6193182;23;20012;-90
2023/06/26 04:28:52;;;;;;;13.77;8.70;;;;;;;;;;6215174;23;20072;-89
2023/06/26 04:31:39;;;;;;;17.50;8.75;;;;;;;;;;6210564;22;20071;-89
2023/06/26 04:34:08;;;;;;;11.18;7.20;;;;;;;;;;6211197;23;20019;-89
2023/06/26 04:36:47;;;;;;;16.63;9.80;;;;;;;;;;6213683;23;20008;-88
2023/06/26 04:39:16;;;;;;;13.73;8.75;;;;;;;;;;6189622;23;20023;-90
2023/06/26 04:41:48;;;;;;;26.17;12.23;;;;;;;;;;6212196;23;20016;-90
2023/06/26 04:44:15;;;;;;;12.13;8.45;;;;;;;;;;6188274;23;20004;-89
2023/06/26 04:46:47;;;;;;;14.52;8.07;;;;;;;;;;6188777;23;20592;-88
2023/06/26 04:49:13;;;;;;;17.17;7.90;;;;;;;;;;6186208;23;20013;-89
2023/06/26 04:51:43;;;;;;;20.65;9.68;;;;;;;;;;6191165;23;20012;-90
2023/06/26 04:54:12;;;;;;;13.88;7.43;;;;;;;;;;6185731;23;20015;-89
2023/06/26 04:56:43;;;;;;;11.85;6.72;;;;;;;;;;6210450;23;20004;-89
2023/06/26 04:59:14;;;;;;;15.13;8.30;;;;;;;;;;6207708;23;20003;-89
2023/06/26 05:01:41;;;;;;;24.90;9.70;;;;;;;;;;6209138;23;20533;-88
2023/06/26 05:04:11;;;;;;;19.08;7.65;;;;;;;;;;6184880;23;20351;-89
2023/06/26 05:07:21;;;;;;;16.15;8.32;;;;;;;;;;6209002;23;20007;-89
2023/06/26 05:09:49;;;;;;;13.82;5.32;;;;;;;;;;6209641;23;20023;-89
2023/06/26 05:12:15;;;;;;;12.40;6.75;;;;;;;;;;6186653;23;20013;-90
2023/06/26 05:14:47;;;;;;;21.88;8.88;;;;;;;;;;6183722;23;20013;-88
2023/06/26 05:17:32;;;;;;;27.05;11.00;;;;;;;;;;6187968;23;20055;-90
2023/06/26 05:20:00;;;;;;;23.08;8.52;;;;;;;;;;6212104;23;20047;-90
2023/06/26 05:22:26;;;;;;;26.90;11.32;;;;;;;;;;6188298;23;20016;-90
2023/06/26 05:25:02;;;;;;;15.93;8.50;;;;;;;;;;6218404;23;20004;-89
2023/06/26 05:27:29;;;;;;;24.58;9.68;;;;;;;;;;6212701;23;20009;-91
2023/06/26 05:29:55;;;;;;;30.75;10.75;;;;;;;;;;6214667;23;20459;-91
2023/06/26 05:32:32;;;;;;;27.08;11.48;;;;;;;;;;6189122;23;20032;-91
2023/06/26 05:35:42;;;;;;;28.33;12.63;;;;;;;;;;6214256;23;20008;-89
2023/06/26 05:37:52;;;;;;;24.02;9.48;;;;;;;;;;6209412;23;20032;-90
2023/06/26 05:40:19;;;;;;;17.15;8.93;;;;;;;;;;6214193;23;20040;-90
2023/06/26 05:42:46;;;;;;;28.45;7.95;;;;;;;;;;6187525;23;20008;-90
2023/06/26 05:48:08;;;;;;;16.10;6.40;;;;;;;;;;6209832;23;20211;-89
2023/06/26 05:50:35;;;;;;;19.63;7.63;;;;;;;;;;6185874;23;20023;-90
2023/06/26 05:53:19;;;;;;;20.98;8.68;;;;;;;;;;6209527;23;20009;-89
2023/06/26 05:55:56;;;;;;;22.15;7.60;;;;;;;;;;6210281;23;20631;-89
2023/06/26 05:58:27;;;;;;;19.15;6.22;;;;;;;;;;6211211;23;20008;-89
2023/06/26 06:00:54;;;;;;;22.83;6.90;;;;;;;;;;6186582;23;20020;-89
2023/06/26 06:03:20;;;;;;;19.23;7.55;;;;;;;;;;6210152;23;20628;-89
2023/06/26 06:05:58;;;;;;;22.48;6.45;;;;;;;;;;6189372;23;20012;-89
2023/06/26 06:08:30;;;;;;;19.73;5.32;;;;;;;;;;6188206;23;20447;-89
2023/06/26 06:10:57;;;;;;;16.55;6.28;;;;;;;;;;6191356;23;20035;-89
2023/06/26 06:13:23;;;;;;;15.85;5.47;;;;;;;;;;6186963;23;20012;-89
2023/06/26 06:15:59;;;;;;;;;;;;;;;;;;;;;
2023/06/26 06:18:42;;;;;;;18.23;5.35;;;;;;;;;;6215555;23;20060;-89
2023/06/26 06:21:18;;;;;;;14.02;4.68;;;;;;;;;;6218452;23;20008;-89
2023/06/26 06:24:08;;;;;;;15.73;4.30;;;;;;;;;;6222653;23;20005;-91
2023/06/26 06:26:37;;;;;;;27.40;5.32;;;;;;;;;;6099301;23;20036;-88
2023/06/26 06:29:03;;;;;;;18.73;5.80;;;;;;;;;;6186765;23;20004;-88
2023/06/26 06:31:30;;;;;;;16.52;3.90;;;;;;;;;;6210618;22;20102;-87
2023/06/26 06:33:56;;;;;;;19.27;4.95;;;;;;;;;;6184188;23;20035;-87
2023/06/26 06:39:17;;;;;;;13.70;4.20;;;;;;;;;;6165034;23;20013;-88
2023/06/26 06:44:32;;;;;;;12.57;3.65;;;;;;;;;;6192418;23;20008;-87
2023/06/26 06:47:00;;;;;;;13.70;3.72;;;;;;;;;;6214541;23;20001;-88
2023/06/26 06:49:29;;;;;;;20.00;3.55;;;;;;;;;;6213324;23;20443;-87
2023/06/26 06:52:01;;;;;;;8.73;3.03;;;;;;;;;;6190320;23;20008;-87
2023/06/26 06:54:28;;;;;;;12.93;3.60;;;;;;;;;;6212855;23;20650;-88
2023/06/26 06:56:54;;;;;;;9.93;2.60;;;;;;;;;;6186516;23;20016;-87
2023/06/26 06:59:20;;;;;;;9.63;2.65;;;;;;;;;;6210937;23;20032;-87
2023/06/26 07:04:39;;;;;;;8.57;2.90;;;;;;;;;;6130400;23;20013;-87
2023/06/26 07:07:08;;;;;;;12.60;2.65;;;;;;;;;;6200801;23;20004;-87
2023/06/26 07:09:35;;;;;;;10.40;2.83;;;;;;;;;;6213394;23;20012;-88
2023/06/26 07:12:01;;;;;;;10.15;3.08;;;;;;;;;;6215410;23;20058;-88
2023/06/26 07:14:38;;;;;;;13.55;2.28;;;;;;;;;;6215517;23;20016;-88
2023/06/26 07:17:05;;;;;;;11.40;2.92;;;;;;;;;;6194394;23;20016;-89
2023/06/26 07:19:41;;;;;;;8.30;2.35;;;;;;;;;;6218693;23;20000;-88
2023/06/26 07:22:11;;;;;;;4.55;2.13;;;;;;;;;;6194667;23;20005;-88
2023/06/26 07:24:39;;;;;;;6.63;2.35;;;;;;;;;;6215444;23;20381;-87
2023/06/26 07:27:06;;;;;;;10.52;2.38;;;;;;;;;;6217978;23;20015;-88
2023/06/26 07:29:33;;;;;;;9.90;2.55;;;;;;;;;;6190077;23;20457;-89
2023/06/26 07:32:16;;;;;;;16.73;2.08;;;;;;;;;;6221510;22;20017;-88
2023/06/26 07:34:43;;;;;;;5.38;2.33;;;;;;;;;;6217464;23;20067;-88
2023/06/26 07:37:13;;;;;;;4.72;2.08;;;;;;;;;;6192819;23;20032;-89
2023/06/26 07:39:42;;;;;;;13.30;2.20;;;;;;;;;;6189392;23;20008;-89
2023/06/26 07:42:13;;;;;;;10.27;2.50;;;;;;;;;;6191785;23;20009;-89
2023/06/26 07:44:39;;;;;;;13.85;2.28;;;;;;;;;;6215120;23;20135;-89
2023/06/26 07:47:06;;;;;;;7.88;2.10;;;;;;;;;;6217340;23;20016;-89
2023/06/26 07:49:46;;;;;;;9.20;2.22;;;;;;;;;;6216209;23;20012;-89
2023/06/26 07:52:14;;;;;;;6.47;1.80;;;;;;;;;;6190268;23;20013;-89
2023/06/26 07:54:52;;;;;;;8.82;2.30;;;;;;;;;;6218808;23;20020;-89
2023/06/26 07:57:19;;;;;;;9.75;2.28;;;;;;;;;;6191503;23;20071;-89
2023/06/26 07:59:56;;;;;;;4.68;1.70;;;;;;;;;;6188882;23;20013;-89
2023/06/26 08:02:45;;;;;;;6.65;1.50;;;;;;;;;;6217821;23;20032;-90
2023/06/26 08:05:16;;;;;;;7.63;1.95;;;;;;;;;;6218233;23;20019;-89
2023/06/26 08:07:42;;;;;;;9.57;1.60;;;;;;;;;;6215441;23;20037;-89
2023/06/26 08:10:08;;;;;;;7.05;1.88;;;;;;;;;;6189634;23;20081;-90
2023/06/26 08:12:42;;;;;;;7.00;1.85;;;;;;;;;;6191319;23;20477;-89
2023/06/26 08:15:09;;;;;;;24.23;1.77;;;;;;;;;;6190647;23;20071;-88
2023/06/26 08:17:42;;;;;;;5.60;1.55;;;;;;;;;;6210087;23;20299;-89
2023/06/26 08:20:08;;;;;;;6.45;1.42;;;;;;;;;;6207769;23;20070;-89
2023/06/26 08:22:34;;;;;;;7.70;1.98;;;;;;;;;;6210798;23;20001;-89
2023/06/26 08:25:00;;;;;;;9.32;1.65;;;;;;;;;;6209018;23;20009;-89
2023/06/26 08:27:26;;;;;;;8.30;1.90;;;;;;;;;;6184921;23;20019;-90
2023/06/26 08:29:53;;;;;;;6.55;1.85;;;;;;;;;;6184685;23;20023;-89
2023/06/26 08:32:20;;;;;;;8.13;2.35;;;;;;;;;;6185932;23;20024;-88
2023/06/26 08:34:46;;;;;;;6.13;1.80;;;;;;;;;;6186197;23;20338;-89
2023/06/26 08:37:12;;;;;;;5.00;2.03;;;;;;;;;;6208275;23;20396;-89
2023/06/26 08:39:38;;;;;;;7.03;3.55;;;;;;;;;;6184799;23;20343;-90
2023/06/26 08:42:05;;;;;;;8.25;2.15;;;;;;;;;;6210606;23;20124;-88
2023/06/26 08:44:31;;;;;;;6.60;2.20;;;;;;;;;;6185226;23;20016;-88
2023/06/26 08:47:00;;;;;;;5.32;2.10;;;;;;;;;;6184669;23;20447;-89
2023/06/26 08:49:29;;;;;;;10.15;3.35;;;;;;;;;;6211259;23;20363;-88
2023/06/26 08:52:03;;;;;;;5.03;1.83;;;;;;;;;;6209377;23;20333;-88
2023/06/26 08:54:34;;;;;;;8.75;1.92;;;;;;;;;;6210025;23;20004;-88
2023/06/26 08:57:00;;;;;;;11.02;3.38;;;;;;;;;;6210063;23;20078;-88
2023/06/26 08:59:41;;;;;;;5.28;2.17;;;;;;;;;;6210871;23;20008;-88
2023/06/26 09:02:07;;;;;;;5.78;2.15;;;;;;;;;;6187713;23;20019;-87
2023/06/26 09:04:35;;;;;;;7.60;1.80;;;;;;;;;;6186660;23;20633;-89
2023/06/26 09:07:01;;;;;;;9.35;2.00;;;;;;;;;;6185507;23;20016;-88
2023/06/26 09:09:27;;;;;;;4.78;2.08;;;;;;;;;;6184810;23;20013;-87
2023/06/26 09:12:03;;;;;;;13.95;3.25;;;;;;;;;;6184955;23;20036;-88
2023/06/26 09:17:29;;;;;;;7.63;2.30;;;;;;;;;;6204204;23;20013;-87
2023/06/26 09:19:56;;;;;;;3.45;1.75;;;;;;;;;;6209612;23;20013;-88
2023/06/26 09:22:22;;;;;;;7.32;1.95;;;;;;;;;;6183891;23;20470;-88
2023/06/26 09:24:49;;;;;;;5.68;2.00;;;;;;;;;;6210036;23;20015;-89
2023/06/26 09:27:15;;;;;;;5.20;1.90;;;;;;;;;;6184354;23;20098;-88
2023/06/26 09:29:41;;;;;;;2.17;1.73;;;;;;;;;;6186325;23;20490;-88
2023/06/26 09:32:21;;;;;;;7.20;1.70;;;;;;;;;;6215421;22;20832;-88
2023/06/26 09:34:48;;;;;;;8.75;1.90;;;;;;;;;;6193846;23;20354;-89
2023/06/26 09:37:14;;;;;;;7.55;2.78;;;;;;;;;;6212839;23;20012;-87
2023/06/26 09:39:44;;;;;;;9.50;2.15;;;;;;;;;;6207544;23;20019;-88
2023/06/26 09:42:10;;;;;;;4.60;2.17;;;;;;;;;;6187732;23;20016;-88
2023/06/26 09:44:37;;;;;;;4.30;1.85;;;;;;;;;;6185438;23;20279;-88
2023/06/26 09:47:03;;;;;;;8.43;2.38;;;;;;;;;;6185583;23;20039;-88
2023/06/26 09:49:30;;;;;;;7.03;2.35;;;;;;;;;;6211452;23;20008;-88
2023/06/26 09:51:56;;;;;;;5.13;1.95;;;;;;;;;;6185022;23;20055;-88
2023/06/26 09:54:22;;;;;;;4.13;1.80;;;;;;;;;;6184684;23;20079;-88
2023/06/26 09:56:49;;;;;;;4.93;2.58;;;;;;;;;;6212258;23;20015;-88
2023/06/26 09:59:16;;;;;;;4.55;2.30;;;;;;;;;;6184560;23;20012;-88
2023/06/26 10:01:48;;;;;;;4.32;2.10;;;;;;;;;;6210751;23;20008;-88
2023/06/26 10:04:17;;;;;;;8.15;2.78;;;;;;;;;;6210109;23;20008;-88
2023/06/26 10:06:47;;;;;;;13.02;3.53;;;;;;;;;;6185138;23;20391;-88
2023/06/26 10:09:15;;;;;;;6.65;2.78;;;;;;;;;;6235516;23;20042;-86
2023/06/26 10:11:44;;;;;;;6.30;2.85;;;;;;;;;;6210393;23;20313;-88
2023/06/26 10:14:11;;;;;;;3.83;2.60;;;;;;;;;;6210397;23;20391;-88
2023/06/26 10:16:40;;;;;;;8.73;3.20;;;;;;;;;;6210687;23;20058;-89
2023/06/26 10:19:08;;;;;;;9.90;2.53;;;;;;;;;;6210384;23;20074;-88
2023/06/26 10:21:35;;;;;;;4.55;2.83;;;;;;;;;;6210067;23;20012;-87
2023/06/26 10:24:05;;;;;;;4.30;2.60;;;;;;;;;;6184654;23;20012;-87
2023/06/26 10:26:34;;;;;;;6.00;2.65;;;;;;;;;;6210969;23;20004;-88
2023/06/26 10:29:02;;;;;;;5.40;3.45;;;;;;;;;;6209036;23;20042;-88
2023/06/26 10:31:29;;;;;;;9.10;2.78;;;;;;;;;;6185686;23;20016;-88
2023/06/26 10:33:56;;;;;;;9.52;3.17;;;;;;;;;;6210231;22;20035;-88
2023/06/26 10:36:31;;;;;;;7.30;2.35;;;;;;;;;;6209881;23;20066;-88
2023/06/26 10:38:59;;;;;;;5.80;2.28;;;;;;;;;;6210877;23;20004;-88
2023/06/26 10:41:26;;;;;;;7.93;2.92;;;;;;;;;;6207094;23;20343;-88
2023/06/26 10:44:07;;;;;;;9.68;2.90;;;;;;;;;;6210023;23;20005;-88
2023/06/26 10:46:50;;;;;;;6.15;2.75;;;;;;;;;;6208501;23;20438;-88
2023/06/26 10:49:17;;;;;;;5.03;2.33;;;;;;;;;;6210245;23;20004;-88
2023/06/26 10:51:48;;;;;;;6.57;2.30;;;;;;;;;;6235790;23;20011;-88
2023/06/26 10:54:18;;;;;;;6.78;2.35;;;;;;;;;;6186272;23;20015;-89
2023/06/26 10:56:45;;;;;;;4.28;2.10;;;;;;;;;;6209936;23;20016;-88
2023/06/26 10:59:13;;;;;;;5.10;2.72;;;;;;;;;;6210286;23;20008;-87
2023/06/26 11:01:46;;;;;;;3.92;2.10;;;;;;;;;;6209361;23;20004;-89
2023/06/26 11:04:17;;;;;;;6.90;2.75;;;;;;;;;;6211780;23;20054;-88
2023/06/26 11:06:45;;;;;;;5.85;2.28;;;;;;;;;;6210560;23;20014;-88
2023/06/26 11:09:12;;;;;;;4.90;2.72;;;;;;;;;;6211699;23;20014;-89
2023/06/26 11:12:04;;;;;;;6.88;2.30;;;;;;;;;;6211177;23;20004;-88
2023/06/26 11:14:30;;;;;;;4.80;2.17;;;;;;;;;;6208068;23;20369;-85
2023/06/26 11:17:00;;;;;;;5.43;2.55;;;;;;;;;;6209024;23;20081;-89
2023/06/26 11:19:30;;;;;;;4.00;2.08;;;;;;;;;;6184726;23;20113;-89
2023/06/26 11:21:59;;;;;;;2.70;1.70;;;;;;;;;;6211454;23;20255;-88
2023/06/26 11:24:26;;;;;;;7.95;2.20;;;;;;;;;;6207675;23;20492;-89
2023/06/26 11:27:00;;;;;;;6.20;2.33;;;;;;;;;;6210308;23;20333;-89
2023/06/26 11:29:26;;;;;;;3.95;2.00;;;;;;;;;;6211956;23;20048;-88
2023/06/26 11:31:59;;;;;;;8.63;2.65;;;;;;;;;;6187319;23;20008;-89
2023/06/26 11:34:26;;;;;;;5.63;1.85;;;;;;;;;;6207651;23;20086;-89
2023/06/26 11:36:53;;;;;;;7.70;1.98;;;;;;;;;;6181269;23;20005;-89
2023/06/26 11:39:19;;;;;;;6.63;2.33;;;;;;;;;;6206155;23;20015;-89
2023/06/26 11:41:46;;;;;;;5.90;1.88;;;;;;;;;;6181084;23;20088;-89
2023/06/26 11:44:14;;;;;;;9.68;2.17;;;;;;;;;;6181156;23;20005;-88
2023/06/26 11:46:40;;;;;;;8.70;2.00;;;;;;;;;;6180776;23;20008;-88
2023/06/26 11:49:07;;;;;;;5.35;1.92;;;;;;;;;;6181100;23;20008;-89
2023/06/26 11:51:35;;;;;;;8.60;2.00;;;;;;;;;;6181359;23;20032;-89
2023/06/26 11:54:03;;;;;;;6.25;1.73;;;;;;;;;;6206088;23;20013;-89
2023/06/26 11:56:30;;;;;;;6.53;1.73;;;;;;;;;;6207729;23;20008;-89
2023/06/26 11:59:03;;;;;;;8.50;2.20;;;;;;;;;;6207838;23;20023;-90
2023/06/26 12:01:34;;;;;;;6.68;2.00;;;;;;;;;;6207875;23;20005;-89
2023/06/26 12:04:03;;;;;;;6.22;1.73;;;;;;;;;;6207241;23;20012;-89
2023/06/26 12:06:43;;;;;;;6.85;1.70;;;;;;;;;;6209110;23;20235;-89
2023/06/26 12:09:13;;;;;;;8.18;1.92;;;;;;;;;;6204921;23;20004;-89
2023/06/26 12:11:44;;;;;;;7.68;2.63;;;;;;;;;;6183381;23;20479;-88
2023/06/26 12:14:11;;;;;;;4.47;1.60;;;;;;;;;;6208477;23;20374;-88
2023/06/26 12:16:47;;;;;;;5.28;1.58;;;;;;;;;;6185336;23;20013;-89
2023/06/26 12:19:14;;;;;;;4.50;1.92;;;;;;;;;;6209951;23;20028;-89
2023/06/26 12:21:40;;;;;;;7.53;2.00;;;;;;;;;;6212157;23;20008;-89
2023/06/26 12:24:10;;;;;;;8.35;1.92;;;;;;;;;;6210090;23;20005;-89
2023/06/26 12:26:39;;;;;;;6.68;2.08;;;;;;;;;;6212618;23;20032;-89
2023/06/26 12:29:31;;;;;;;9.57;1.90;;;;;;;;;;6186936;23;20033;-88
2023/06/26 12:31:57;;;;;;;8.35;2.15;;;;;;;;;;6210424;23;20013;-88
2023/06/26 12:34:42;;;;;;;6.25;2.10;;;;;;;;;;6184775;23;20028;-88
2023/06/26 12:37:09;;;;;;;6.50;2.47;;;;;;;;;;6212858;23;20011;-89
2023/06/26 12:39:55;;;;;;;6.35;2.67;;;;;;;;;;6210171;23;20013;-89
2023/06/26 12:42:21;;;;;;;;;;;;;;;;;;6209944;23;20067;-89
2023/06/26 12:44:57;;;;;;;10.05;1.80;;;;;;;;;;6209989;23;19904;-88
2023/06/26 12:47:28;;;;;;;6.45;1.50;;;;;;;;;;6204052;23;20012;-88
2023/06/26 12:49:54;;;;;;;6.80;1.77;;;;;;;;;;6213231;23;20012;-88
2023/06/26 12:52:24;;;;;;;4.40;1.52;;;;;;;;;;6212377;23;20702;-89
2023/06/26 12:54:57;;;;;;;11.63;1.73;;;;;;;;;;6213374;23;20008;-89
2023/06/26 12:57:24;;;;;;;6.70;1.60;;;;;;;;;;6186448;23;20103;-89
2023/06/26 13:00:00;;;;;;;4.78;1.52;;;;;;;;;;6213707;23;20454;-89
2023/06/26 13:02:26;;;;;;;5.45;1.50;;;;;;;;;;6187793;23;20386;-88
2023/06/26 13:04:55;;;;;;;4.80;2.00;;;;;;;;;;6188256;23;20012;-87
2023/06/26 13:07:25;;;;;;;5.72;1.70;;;;;;;;;;6211478;23;20092;-89
2023/06/26 13:09:51;;;;;;;5.38;1.77;;;;;;;;;;6187802;23;20031;-89
2023/06/26 13:12:20;;;;;;;4.07;1.63;;;;;;;;;;6187422;23;20059;-89
2023/06/26 13:14:56;;;;;;;2.83;1.40;;;;;;;;;;6209879;23;20076;-89
2023/06/26 13:17:28;;;;;;;9.18;1.80;;;;;;;;;;6210264;23;20008;-89
2023/06/26 13:19:55;;;;;;;5.57;1.45;;;;;;;;;;6210908;23;20013;-89
2023/06/26 13:22:21;;;;;;;6.30;1.58;;;;;;;;;;6186804;23;20012;-88
2023/06/26 13:24:49;;;;;;;10.80;1.63;;;;;;;;;;6185389;23;20011;-88
2023/06/26 13:27:16;;;;;;;3.20;1.60;;;;;;;;;;6186172;23;20313;-89
2023/06/26 13:29:42;;;;;;;5.30;1.92;;;;;;;;;;6187144;23;20012;-88
2023/06/26 13:32:09;;;;;;;4.72;1.98;;;;;;;;;;6209019;23;20009;-89
2023/06/26 13:34:35;;;;;;;7.63;2.33;;;;;;;;;;6208425;23;20469;-89
2023/06/26 13:37:13;;;;;;;7.75;1.45;;;;;;;;;;6209044;23;20024;-87
2023/06/26 13:39:40;;;;;;;11.18;2.13;;;;;;;;;;6184751;23;20017;-89
2023/06/26 13:42:06;;;;;;;10.63;2.40;;;;;;;;;;6185545;23;20005;-89
2023/06/26 13:44:33;;;;;;;6.18;1.92;;;;;;;;;;6209030;23;20466;-89
2023/06/26 13:46:59;;;;;;;6.53;2.20;;;;;;;;;;6182220;23;20091;-89
2023/06/26 13:49:25;;;;;;;7.25;1.50;;;;;;;;;;6182556;23;20008;-88
2023/06/26 13:51:51;;;;;;;11.38;1.85;;;;;;;;;;6207965;23;20450;-88
2023/06/26 13:54:18;;;;;;;8.40;1.75;;;;;;;;;;6208108;23;20005;-89
2023/06/26 13:56:44;;;;;;;9.10;2.22;;;;;;;;;;6208215;23;20371;-88
2023/06/26 13:59:10;;;;;;;7.22;1.88;;;;;;;;;;6180812;23;20032;-88
2023/06/26 14:01:36;;;;;;;8.88;2.35;;;;;;;;;;6181096;23;20040;-88
2023/06/26 14:04:03;;;;;;;9.75;2.20;;;;;;;;;;6207560;23;20004;-88
2023/06/26 14:06:32;;;;;;;9.27;2.17;;;;;;;;;;6183015;23;20059;-88
2023/06/26 14:08:59;;;;;;;12.13;2.20;;;;;;;;;;6182461;23;20340;-87
2023/06/26 14:11:27;;;;;;;4.80;1.85;;;;;;;;;;6205319;23;20013;-88
2023/06/26 14:13:53;;;;;;;5.90;1.58;;;;;;;;;;6182407;23;20450;-87
2023/06/26 14:16:20;;;;;;;5.28;1.85;;;;;;;;;;6205364;23;20008;-87
2023/06/26 14:18:49;;;;;;;6.88;2.78;;;;;;;;;;6180424;23;20082;-87
2023/06/26 14:21:16;;;;;;;4.78;1.98;;;;;;;;;;6180821;23;20013;-87
2023/06/26 14:23:45;;;;;;;12.13;2.85;;;;;;;;;;6181537;23;20238;-87
2023/06/26 14:26:14;;;;;;;6.40;2.10;;;;;;;;;;6182981;23;20016;-87
2023/06/26 14:28:40;;;;;;;4.53;1.95;;;;;;;;;;6204890;23;20039;-87
2023/06/26 14:31:06;;;;;;;7.95;2.47;;;;;;;;;;6206064;23;20021;-87
2023/06/26 14:33:33;;;;;;;3.45;1.60;;;;;;;;;;6180827;23;20054;-86
2023/06/26 14:35:59;;;;;;;6.72;1.83;;;;;;;;;;6207612;23;20009;-87
2023/06/26 14:38:25;;;;;;;6.07;2.13;;;;;;;;;;6181918;23;20066;-87
2023/06/26 14:40:51;;;;;;;5.78;1.80;;;;;;;;;;6179835;23;20048;-87
2023/06/26 14:43:18;;;;;;;5.15;2.00;;;;;;;;;;6180244;23;20019;-87
2023/06/26 14:45:44;;;;;;;8.00;2.33;;;;;;;;;;6208089;23;20059;-87
2023/06/26 14:48:11;;;;;;;5.13;1.90;;;;;;;;;;6180870;23;20008;-87
2023/06/26 14:50:37;;;;;;;10.50;1.85;;;;;;;;;;6181223;23;20435;-87
2023/06/26 14:53:06;;;;;;;6.57;1.63;;;;;;;;;;6181473;23;20036;-87
2023/06/26 14:55:34;;;;;;;5.05;1.85;;;;;;;;;;6181707;23;20012;-87
2023/06/26 14:58:01;;;;;;;4.70;1.52;;;;;;;;;;6181761;23;20521;-86
2023/06/26 15:00:27;;;;;;;18.40;2.08;;;;;;;;;;6183269;23;20084;-87
2023/06/26 15:02:53;;;;;;;13.35;1.98;;;;;;;;;;6205636;23;20413;-87
2023/06/26 15:05:22;;;;;;;9.80;1.90;;;;;;;;;;6207283;23;20394;-86
2023/06/26 15:07:49;;;;;;;4.38;1.73;;;;;;;;;;6182102;23;20352;-87
2023/06/26 15:10:16;;;;;;;3.72;1.92;;;;;;;;;;6182912;23;20106;-87
2023/06/26 15:12:43;;;;;;;8.48;2.35;;;;;;;;;;6207569;23;20402;-86
2023/06/26 15:15:10;;;;;;;5.80;1.80;;;;;;;;;;6182405;23;20016;-85
2023/06/26 15:17:36;;;;;;;5.00;1.67;;;;;;;;;;6182099;23;20016;-86
2023/06/26 15:20:02;;;;;;;9.20;2.15;;;;;;;;;;6181928;23;20012;-86
2023/06/26 15:22:29;;;;;;;12.18;1.80;;;;;;;;;;6206351;23;20351;-86
2023/06/26 15:24:55;;;;;;;4.90;1.50;;;;;;;;;;6181016;23;20296;-87